Time;durP1;ratioP1;P1;durP2;ratioP2;P2;SDS_P1;SDS_P2;PMS_P1;PMS_P2;Temp;Humidity;BMP_temperature;BMP_pressure;BME280_temperature;BME280_humidity;BME280_pressure;Samples;Min_cycle;Max_cycle;Signal;HPM_P1;HPM_P2
2022/10/23 00:00:17;;;;;;;;;;;;;;;20.62;67.27;99654.84;7310569;19;130203;-39
2022/10/23 00:02:42;;;;;;;;;;;;;;;20.59;67.46;99649.88;7309570;19;130556;-40
2022/10/23 00:05:08;;;;;;;;;;;;;;;20.52;67.06;99639.13;7310665;19;129254;-38
2022/10/23 00:07:33;;;;;;;;;;;;;;;20.61;67.27;99654.00;7309613;19;129271;-39
2022/10/23 00:09:58;;;;;;;;;;;;;;;20.64;66.94;99645.09;7310430;19;129294;-39
2022/10/23 00:12:23;;;;;;;;;;;;;;;20.61;67.54;99653.16;7307903;19;131225;-39
2022/10/23 00:14:48;;;;;;;;;;;;;;;20.60;67.46;99635.84;7310121;19;129365;-40
2022/10/23 00:17:14;;;;;;;;;;;;;;;20.59;66.96;99649.88;7309913;19;129636;-40
2022/10/23 00:19:39;;;;;;;;;;;;;;;20.60;67.19;99652.34;7310106;19;130146;-37
2022/10/23 00:22:04;;;;;;;;;;;;;;;20.59;67.74;99650.69;7308240;19;130300;-38
2022/10/23 00:24:29;;;;;;;;;;;;;;;20.58;67.37;99648.22;7310922;19;129714;-39
2022/10/23 00:26:55;;;;;;;;;;;;;;;20.49;67.44;99633.34;7307612;19;129479;-38
2022/10/23 00:29:20;;;;;;;;;;;;;;;20.63;67.74;99651.25;7308441;19;130049;-38
2022/10/23 00:31:45;;;;;;;;;;;;;;;20.54;66.96;99625.94;7308787;19;130455;-38
2022/10/23 00:34:10;;;;;;;;;;;;;;;20.60;67.66;99631.47;7310160;19;129948;-38
2022/10/23 00:36:36;;;;;;;;;;;;;;;20.60;66.96;99635.84;7309775;19;129007;-39
2022/10/23 00:39:02;;;;;;;;;;;;;;;20.61;67.59;99637.50;7306777;19;130558;-40
2022/10/23 00:41:28;;;;;;;;;;;;;;;20.59;67.70;99628.97;7308982;19;130127;-37
2022/10/23 00:43:55;;;;;;;;;;;;;;;20.59;67.53;99634.22;7311014;19;128849;-40
2022/10/23 00:46:20;;;;;;;;;;;;;;;20.65;67.13;99638.91;7307982;19;129625;-40
2022/10/23 00:48:45;;;;;;;;;;;;;;;20.63;67.17;99635.56;7307103;19;130402;-40
2022/10/23 00:51:11;;;;;;;;;;;;;;;20.65;67.40;99631.06;7308142;19;130438;-41
2022/10/23 00:53:36;;;;;;;;;;;;;;;20.50;67.39;99614.94;7309236;19;129005;-40
2022/10/23 00:56:02;;;;;;;;;;;;;;;20.62;67.26;99639.16;7314290;19;129401;-38
2022/10/23 00:58:27;;;;;;;;;;;;;;;20.61;67.43;99642.72;7313984;19;130051;-40
2022/10/23 01:00:54;;;;;;;;;;;;;;;20.59;66.84;99636.81;7315169;19;131017;-39
2022/10/23 01:03:22;;;;;;;;;;;;;;;20.59;67.76;99644.66;7316467;19;129467;-38
2022/10/23 01:05:56;;;;;;;;;;;;;;;20.59;67.21;99636.81;7314564;19;129421;-38
2022/10/23 01:08:21;;;;;;;;;;;;;;;20.56;67.66;99635.28;7313735;19;130148;-41
2022/10/23 01:10:51;;;;;;;;;;;;;;;20.61;67.12;99637.50;7314843;19;131459;-39
2022/10/23 01:13:27;;;;;;;;;;;;;;;20.62;67.04;99636.56;7312367;19;145903;-36
2022/10/23 01:16:00;;;;;;;;;;;;;;;20.63;66.91;99631.19;7315130;19;129370;-39
2022/10/23 01:18:29;;;;;;;;;;;;;;;20.62;67.40;99641.78;7312781;19;129510;-40
2022/10/23 01:21:04;;;;;;;;;;;;;;;20.62;67.40;99637.38;7311976;19;129986;-39
2022/10/23 01:23:48;;;;;;;;;;;;;;;20.62;67.53;99647.84;7314950;19;129020;-40
2022/10/23 01:26:30;;;;;;;;;;;;;;;20.62;66.93;99644.38;7313824;19;130169;-40
2022/10/23 01:28:59;;;;;;;;;;;;;;;20.50;67.21;99625.38;7312182;19;131954;-39
2022/10/23 01:31:33;;;;;;;;;;;;;;;20.59;67.26;99644.66;7314712;19;129925;-37
2022/10/23 01:34:05;;;;;;;;;;;;;;;20.62;67.27;99641.78;7315289;19;129212;-40
2022/10/23 01:36:31;;;;;;;;;;;;;;;20.62;67.58;99637.38;7315297;19;129328;-39
2022/10/23 01:38:58;;;;;;;;;;;;;;;20.62;67.06;99639.16;7311960;19;129759;-40
2022/10/23 01:41:29;;;;;;;;;;;;;;;20.62;67.71;99636.56;7314155;19;131247;-39
2022/10/23 01:43:57;;;;;;;;;;;;;;;20.62;67.05;99639.16;7314538;19;129327;-39
2022/10/23 01:46:24;;;;;;;;;;;;;;;20.63;67.21;99638.19;7313324;19;129060;-39
2022/10/23 01:48:52;;;;;;;;;;;;;;;20.61;67.81;99637.50;7312078;19;130014;-39
2022/10/23 01:51:19;;;;;;;;;;;;;;;20.62;67.17;99644.38;7313382;19;131080;-39
2022/10/23 01:53:46;;;;;;;;;;;;;;;20.61;67.48;99646.16;7315249;19;129475;-36
2022/10/23 01:56:13;;;;;;;;;;;;;;;20.61;67.50;99647.94;7314145;19;130091;-40
2022/10/23 01:58:41;;;;;;;;;;;;;;;20.59;67.32;99642.03;7312475;19;129776;-39
2022/10/23 02:01:07;;;;;;;;;;;;;;;20.58;67.41;99645.59;7313370;19;131361;-40
2022/10/23 02:03:34;;;;;;;;;;;;;;;20.55;67.33;99622.34;7315388;19;130285;-40
2022/10/23 02:05:59;;;;;;;;;;;;;;;20.62;67.50;99644.38;7311195;19;129885;-40
2022/10/23 02:08:25;;;;;;;;;;;;;;;20.57;67.67;99646.56;7312025;19;130215;-39
2022/10/23 02:10:56;;;;;;;;;;;;;;;20.61;67.43;99637.50;7312574;19;130291;-39
2022/10/23 02:13:28;;;;;;;;;;;;;;;20.60;66.89;99628.00;7314143;19;129260;-37
2022/10/23 02:16:14;;;;;;;;;;;;;;;20.61;67.24;99627.03;7313318;19;129598;-39
2022/10/23 02:18:53;;;;;;;;;;;;;;;20.59;67.40;99623.75;7309429;19;132387;-37
2022/10/23 02:21:27;;;;;;;;;;;;;;;20.55;67.39;99630.19;7310759;19;130665;-39
2022/10/23 02:23:59;;;;;;;;;;;;;;;20.60;67.15;99630.63;7313457;19;129241;-40
2022/10/23 02:26:48;;;;;;;;;;;;;;;20.59;67.18;99623.75;7311786;19;129452;-39
2022/10/23 02:29:34;;;;;;;;;;;;;;;20.58;67.59;99622.09;7311940;19;130545;-41
2022/10/23 02:32:00;;;;;;;;;;;;;;;20.55;67.07;99617.13;7310988;19;130344;-37
2022/10/23 02:34:25;;;;;;;;;;;;;;;20.61;66.99;99603.53;7313796;19;129277;-39
2022/10/23 02:36:50;;;;;;;;;;;;;;;20.58;67.36;99614.25;7313191;19;129132;-39
2022/10/23 02:39:16;;;;;;;;;;;;;;;20.58;66.86;99606.41;7313611;19;130142;-38
2022/10/23 02:41:44;;;;;;;;;;;;;;;20.56;67.61;99603.13;7311481;19;129307;-40
2022/10/23 02:44:09;;;;;;;;;;;;;;;20.46;67.66;99584.00;7313027;19;129451;-39
2022/10/23 02:46:37;;;;;;;;;;;;;;;20.62;67.35;99607.81;7312161;19;129048;-41
2022/10/23 02:49:10;;;;;;;;;;;;;;;20.61;67.21;99611.38;7310344;19;130165;-40
2022/10/23 02:51:35;;;;;;;;;;;;;;;20.49;67.58;99588.94;7311436;19;131018;-40
2022/10/23 02:54:10;;;;;;;;;;;;;;;20.58;67.08;99611.63;7312098;19;129156;-37
2022/10/23 02:56:39;;;;;;;;;;;;;;;20.59;67.56;99608.09;7313718;19;129325;-40
2022/10/23 02:59:13;;;;;;;;;;;;;;;20.55;67.53;99606.69;7309915;19;129569;-39
2022/10/23 03:01:48;;;;;;;;;;;;;;;20.59;66.84;99613.31;7311644;19;130464;-40
2022/10/23 03:04:14;;;;;;;;;;;;;;;20.60;66.92;99605.34;7312182;19;129087;-39
2022/10/23 03:06:40;;;;;;;;;;;;;;;20.63;66.97;99614.69;7310347;19;129735;-39
2022/10/23 03:09:07;;;;;;;;;;;;;;;20.60;67.33;99615.78;7310662;19;129597;-40
2022/10/23 03:11:32;;;;;;;;;;;;;;;20.56;67.22;99603.13;7310493;19;130348;-39
2022/10/23 03:13:57;;;;;;;;;;;;;;;20.51;67.38;99597.47;7312452;19;129145;-39
2022/10/23 03:16:23;;;;;;;;;;;;;;;20.58;67.72;99603.81;7312657;19;129538;-39
2022/10/23 03:18:48;;;;;;;;;;;;;;;20.58;67.42;99609.03;7310556;19;129173;-40
2022/10/23 03:21:13;;;;;;;;;;;;;;;20.60;67.75;99610.56;7310860;19;130292;-40
2022/10/23 03:23:38;;;;;;;;;;;;;;;20.50;67.33;99596.66;7311382;19;129234;-41
2022/10/23 03:26:04;;;;;;;;;;;;;;;20.55;66.96;99598.84;7313216;19;129142;-38
2022/10/23 03:28:29;;;;;;;;;;;;;;;20.62;66.90;99618.25;7310470;19;130211;-39
2022/10/23 03:30:55;;;;;;;;;;;;;;;20.60;67.69;99617.56;7311774;19;130465;-40
2022/10/23 03:33:20;;;;;;;;;;;;;;;20.62;67.26;99618.25;7311612;19;131110;-39
2022/10/23 03:35:46;;;;;;;;;;;;;;;20.58;67.92;99616.88;7312597;19;129398;-37
2022/10/23 03:38:12;;;;;;;;;;;;;;;20.55;67.33;99607.53;7309450;19;129741;-39
2022/10/23 03:40:37;;;;;;;;;;;;;;;20.57;67.62;99607.38;7310805;19;130273;-40
2022/10/23 03:43:02;;;;;;;;;;;;;;;20.59;66.81;99613.31;7310235;19;129570;-40
2022/10/23 03:45:27;;;;;;;;;;;;;;;20.60;67.08;99613.19;7312144;19;129226;-40
2022/10/23 03:47:52;;;;;;;;;;;;;;;20.63;67.18;99614.69;7308140;19;131130;-39
2022/10/23 03:50:18;;;;;;;;;;;;;;;20.63;67.39;99609.47;7310262;19;130194;-38
2022/10/23 03:52:43;;;;;;;;;;;;;;;20.65;66.97;99612.78;7309818;19;128920;-38
2022/10/23 03:55:09;;;;;;;;;;;;;;;20.65;66.84;99607.53;7312147;19;129679;-39
2022/10/23 03:57:34;;;;;;;;;;;;;;;20.63;66.82;99604.22;7309347;19;129093;-38
2022/10/23 03:59:59;;;;;;;;;;;;;;;20.64;67.00;99608.53;7310123;19;130193;-40
2022/10/23 04:02:24;;;;;;;;;;;;;;;20.63;67.53;99614.69;7309775;19;130005;-39
2022/10/23 04:04:49;;;;;;;;;;;;;;;20.51;67.33;99594.88;7310369;19;129323;-38
2022/10/23 04:07:15;;;;;;;;;;;;;;;20.59;67.48;99608.09;7308255;19;129740;-39
2022/10/23 04:09:40;;;;;;;;;;;;;;;20.57;67.31;99612.63;7309770;19;130314;-37
2022/10/23 04:12:05;;;;;;;;;;;;;;;20.56;67.17;99618.81;7309796;19;129046;-40
2022/10/23 04:14:31;;;;;;;;;;;;;;;20.59;67.47;99605.47;7310650;19;129068;-40
2022/10/23 04:16:56;;;;;;;;;;;;;;;20.56;67.84;99605.75;7309641;19;130134;-40
2022/10/23 04:19:21;;;;;;;;;;;;;;;20.59;67.53;99602.88;7310658;19;129865;-39
2022/10/23 04:21:46;;;;;;;;;;;;;;;20.60;67.21;99602.72;7309735;19;130282;-38
2022/10/23 04:24:12;;;;;;;;;;;;;;;20.60;67.17;99609.72;7309992;19;129105;-40
2022/10/23 04:26:37;;;;;;;;;;;;;;;20.59;67.47;99602.88;7308434;19;130102;-39
2022/10/23 04:29:02;;;;;;;;;;;;;;;20.62;67.75;99594.75;7308186;19;131111;-38
2022/10/23 04:31:27;;;;;;;;;;;;;;;20.61;67.45;99596.53;7316577;19;128965;-40
2022/10/23 04:33:53;;;;;;;;;;;;;;;20.58;67.75;99599.41;7317557;19;129414;-38
2022/10/23 04:36:18;;;;;;;;;;;;;;;20.58;67.49;99594.19;7316791;19;130120;-38
2022/10/23 04:38:43;;;;;;;;;;;;;;;20.59;67.07;99593.22;7314031;19;129258;-37
2022/10/23 04:41:08;;;;;;;;;;;;;;;20.62;67.53;99599.97;7316937;19;129631;-38
2022/10/23 04:43:34;;;;;;;;;;;;;;;20.59;67.13;99595.84;7315042;19;129231;-41
2022/10/23 04:45:59;;;;;;;;;;;;;;;20.60;66.84;99596.66;7316496;19;131162;-39
2022/10/23 04:48:24;;;;;;;;;;;;;;;20.59;67.64;99603.66;7314785;19;130420;-39
2022/10/23 04:50:57;;;;;;;;;;;;;;;20.56;67.60;99608.38;7316819;19;129250;-37
2022/10/23 04:53:22;;;;;;;;;;;;;;;20.56;67.47;99603.13;7315087;19;128876;-40
2022/10/23 04:55:51;;;;;;;;;;;;;;;20.57;67.27;99602.16;7315763;19;129463;-40
2022/10/23 04:58:17;;;;;;;;;;;;;;;20.60;67.28;99609.72;7314413;19;130409;-39
2022/10/23 05:00:42;;;;;;;;;;;;;;;20.63;67.21;99612.06;7316396;19;129180;-39
2022/10/23 05:03:07;;;;;;;;;;;;;;;20.59;67.11;99608.91;7316071;19;129277;-39
2022/10/23 05:05:33;;;;;;;;;;;;;;;20.59;67.23;99608.09;7314747;19;129660;-38
2022/10/23 05:07:58;;;;;;;;;;;;;;;20.56;67.44;99616.19;7312801;19;129309;-39
2022/10/23 05:10:23;;;;;;;;;;;;;;;20.56;67.75;99603.94;7314880;19;129195;-39
2022/10/23 05:12:48;;;;;;;;;;;;;;;20.61;67.71;99603.53;7315138;19;129652;-39
2022/10/23 05:15:14;;;;;;;;;;;;;;;20.56;67.20;99595.31;7314510;19;130007;-40
2022/10/23 05:17:41;;;;;;;;;;;;;;;20.57;67.76;99604.78;7315065;19;131832;-37
2022/10/23 05:20:08;;;;;;;;;;;;;;;20.48;67.30;99589.88;7314486;19;129638;-39
2022/10/23 05:22:35;;;;;;;;;;;;;;;20.61;67.35;99600.91;7315035;19;129367;-39
2022/10/23 05:25:01;;;;;;;;;;;;;;;20.62;67.10;99605.19;7315590;19;130238;-38
2022/10/23 05:27:26;;;;;;;;;;;;;;;20.56;67.34;99593.50;7313609;19;131015;-39
2022/10/23 05:29:52;;;;;;;;;;;;;;;20.66;66.59;99619.63;7316712;19;129189;-40
2022/10/23 05:32:17;;;;;;;;;;;;;;;20.63;67.17;99609.47;7314635;19;130066;-40
2022/10/23 05:34:42;;;;;;;;;;;;;;;20.60;66.91;99612.34;7314535;19;130202;-37
2022/10/23 05:37:09;;;;;;;;;;;;;;;20.49;67.41;99594.16;7314808;19;130262;-40
2022/10/23 05:39:34;;;;;;;;;;;;;;;20.55;67.17;99611.91;7315132;19;129497;-39
2022/10/23 05:42:00;;;;;;;;;;;;;;;20.55;67.48;99598.84;7313017;19;129116;-39
2022/10/23 05:44:25;;;;;;;;;;;;;;;20.55;67.39;99606.69;7314229;19;129504;-39
2022/10/23 05:46:50;;;;;;;;;;;;;;;20.56;67.68;99598.72;7313793;19;130408;-38
2022/10/23 05:49:15;;;;;;;;;;;;;;;20.59;67.38;99597.63;7314390;19;129139;-40
2022/10/23 05:51:40;;;;;;;;;;;;;;;20.62;67.22;99586.91;7312952;19;129350;-40
2022/10/23 05:54:07;;;;;;;;;;;;;;;20.58;67.04;99586.34;7312799;19;130143;-40
2022/10/23 05:56:35;;;;;;;;;;;;;;;20.56;67.76;99597.91;7315455;19;130818;-38
2022/10/23 05:59:01;;;;;;;;;;;;;;;20.58;67.27;99590.75;7310729;19;129325;-40
2022/10/23 06:01:26;;;;;;;;;;;;;;;20.57;67.62;99584.72;7314195;19;129279;-39
2022/10/23 06:03:51;;;;;;;;;;;;;;;20.60;67.03;99594.91;7303443;19;130215;-38
2022/10/23 06:06:16;;;;;;;;;;;;;;;20.61;67.72;99596.53;7313411;19;131234;-40
2022/10/23 06:08:42;;;;;;;;;;;;;;;20.60;66.83;99594.06;7310586;19;129809;-38
2022/10/23 06:11:08;;;;;;;;;;;;;;;20.51;66.96;99584.44;7302729;19;129533;-40
2022/10/23 06:13:33;;;;;;;;;;;;;;;20.58;67.31;99602.03;7311891;19;130484;-37
2022/10/23 06:15:59;;;;;;;;;;;;;;;20.60;67.54;99604.50;7311778;19;129327;-41
2022/10/23 06:18:24;;;;;;;;;;;;;;;20.60;67.60;99609.72;7311568;19;129681;-40
2022/10/23 06:20:49;;;;;;;;;;;;;;;20.60;66.95;99600.13;7310993;19;128878;-40
2022/10/23 06:23:14;;;;;;;;;;;;;;;20.61;67.29;99599.16;7313806;19;131247;-38
2022/10/23 06:25:39;;;;;;;;;;;;;;;20.60;67.50;99594.91;7313648;19;129310;-39
2022/10/23 06:28:05;;;;;;;;;;;;;;;20.64;66.69;99600.69;7310930;19;128893;-39
2022/10/23 06:30:30;;;;;;;;;;;;;;;20.62;66.75;99605.19;7313367;19;129487;-39
2022/10/23 06:32:55;;;;;;;;;;;;;;;20.60;67.38;99604.50;7313398;19;130791;-39
2022/10/23 06:35:20;;;;;;;;;;;;;;;20.60;67.72;99604.50;7314062;19;131052;-39
2022/10/23 06:37:46;;;;;;;;;;;;;;;20.58;67.76;99609.03;7312013;19;130109;-40
2022/10/23 06:40:11;;;;;;;;;;;;;;;20.61;66.93;99606.97;7314198;19;129246;-39
2022/10/23 06:42:36;;;;;;;;;;;;;;;20.59;67.13;99618.53;7313627;19;131352;-39
2022/10/23 06:45:02;;;;;;;;;;;;;;;20.59;67.37;99608.09;7313383;19;130710;-39
2022/10/23 06:47:27;;;;;;;;;;;;;;;20.60;67.36;99614.94;7311694;19;128985;-41
2022/10/23 06:49:52;;;;;;;;;;;;;;;20.65;66.94;99613.59;7313822;19;129413;-38
2022/10/23 06:52:17;;;;;;;;;;;;;;;20.58;66.60;99612.47;7310292;19;130143;-39
2022/10/23 06:54:42;;;;;;;;;;;;;;;20.54;67.05;99600.63;7312774;19;129516;-39
2022/10/23 06:57:08;;;;;;;;;;;;;;;20.61;66.88;99613.97;7312685;19;129243;-41
2022/10/23 06:59:33;;;;;;;;;;;;;;;20.59;67.52;99613.31;7313816;19;129055;-38
2022/10/23 07:01:58;;;;;;;;;;;;;;;20.64;67.55;99611.13;7312091;19;131022;-38
2022/10/23 07:04:24;;;;;;;;;;;;;;;20.63;67.54;99619.91;7312068;19;130444;-39
2022/10/23 07:06:49;;;;;;;;;;;;;;;20.63;67.49;99618.13;7312198;19;129851;-38
2022/10/23 07:09:14;;;;;;;;;;;;;;;20.63;67.06;99618.13;7311019;19;129047;-38
2022/10/23 07:11:39;;;;;;;;;;;;;;;20.64;67.20;99617.16;7311984;19;130348;-39
2022/10/23 07:14:05;;;;;;;;;;;;;;;20.59;67.51;99616.72;7312673;19;130427;-40
2022/10/23 07:16:30;;;;;;;;;;;;;;;20.64;67.52;99616.34;7312773;19;129168;-37
2022/10/23 07:19:00;;;;;;;;;;;;;;;20.61;67.53;99620.03;7312219;19;129062;-39
2022/10/23 07:21:33;;;;;;;;;;;;;;;20.62;66.80;99620.88;7310172;19;130324;-39
2022/10/23 07:23:58;;;;;;;;;;;;;;;20.65;67.43;99631.06;7310665;19;129427;-39
2022/10/23 07:26:24;;;;;;;;;;;;;;;20.64;67.50;99624.19;7310954;19;129355;-39
2022/10/23 07:28:53;;;;;;;;;;;;;;;20.63;67.01;99619.91;7309902;19;128932;-37
2022/10/23 07:31:19;;;;;;;;;;;;;;;20.65;66.74;99625.84;7310755;19;130966;-40
2022/10/23 07:33:44;;;;;;;;;;;;;;;20.65;66.72;99620.59;7311458;19;130437;-38
2022/10/23 07:36:09;;;;;;;;;;;;;;;20.61;66.97;99617.44;7310802;19;129107;-39
2022/10/23 07:38:34;;;;;;;;;;;;;;;20.60;67.53;99618.41;7310577;19;129298;-37
2022/10/23 07:41:00;;;;;;;;;;;;;;;20.63;66.73;99630.34;7311834;19;130224;-39
2022/10/23 07:43:26;;;;;;;;;;;;;;;20.63;67.35;99625.97;7309680;19;130143;-40
2022/10/23 07:45:51;;;;;;;;;;;;;;;20.57;67.20;99620.44;7311916;19;129679;-39
2022/10/23 07:48:17;;;;;;;;;;;;;;;20.61;67.25;99621.81;7309098;19;129282;-38
2022/10/23 07:50:42;;;;;;;;;;;;;;;20.61;67.51;99611.38;7310890;19;130751;-41
2022/10/23 07:53:18;;;;;;;;;;;;;;;20.63;66.83;99610.28;7310115;19;130897;-38
2022/10/23 07:55:51;;;;;;;;;;;;;;;20.61;66.81;99600.91;7310049;19;129187;-40
2022/10/23 07:58:16;;;;;;;;;;;;;;;20.62;66.93;99607.81;7310249;19;129200;-40
2022/10/23 08:00:41;;;;;;;;;;;;;;;20.56;67.10;99608.38;7311639;19;130645;-39
2022/10/23 08:03:06;;;;;;;;;;;;;;;20.57;67.56;99604.78;7310896;19;130287;-38
2022/10/23 08:05:32;;;;;;;;;;;;;;;20.56;67.79;99605.75;7316005;19;129749;-40
2022/10/23 08:07:57;;;;;;;;;;;;;;;20.53;67.56;99601.59;7316057;19;130581;-37
2022/10/23 08:10:22;;;;;;;;;;;;;;;20.56;67.51;99610.97;7316887;19;130248;-41
2022/10/23 08:12:47;;;;;;;;;;;;;;;20.57;67.65;99610.84;7317303;19;130514;-39
2022/10/23 08:15:12;;;;;;;;;;;;;;;20.58;67.66;99616.88;7317114;19;131033;-40
2022/10/23 08:17:38;;;;;;;;;;;;;;;20.59;66.89;99619.34;7318310;19;129474;-39
2022/10/23 08:20:03;;;;;;;;;;;;;;;20.48;67.31;99605.56;7317122;19;129063;-38
2022/10/23 08:22:28;;;;;;;;;;;;;;;20.59;67.44;99618.53;7315678;19;132115;-41
2022/10/23 08:24:54;;;;;;;;;;;;;;;20.59;67.36;99615.94;7317321;19;129807;-39
2022/10/23 08:27:19;;;;;;;;;;;;;;;20.59;66.92;99618.53;7316686;19;129047;-39
2022/10/23 08:29:44;;;;;;;;;;;;;;;20.52;66.93;99596.50;7316021;19;129988;-40
2022/10/23 08:32:09;;;;;;;;;;;;;;;20.59;67.57;99603.66;7314433;19;130625;-39
2022/10/23 08:34:36;;;;;;;;;;;;;;;20.59;67.46;99605.47;7316602;19;129199;-40
2022/10/23 08:37:02;;;;;;;;;;;;;;;20.58;67.36;99602.03;7316614;19;130796;-38
2022/10/23 08:39:27;;;;;;;;;;;;;;;20.58;66.98;99606.41;7315993;19;130105;-39
2022/10/23 08:41:53;;;;;;;;;;;;;;;20.60;67.41;99599.28;7314234;19;129493;-40
2022/10/23 08:44:24;;;;;;;;;;;;;;;20.57;67.17;99595.16;7316301;19;129062;-38
2022/10/23 08:47:08;;;;;;;;;;;;;;;20.60;67.44;99589.66;7315716;19;130144;-39
2022/10/23 08:49:33;;;;;;;;;;;;;;;20.60;66.74;99589.66;7316467;19;130285;-39
2022/10/23 08:52:01;;;;;;;;;;;;;;;20.64;67.24;99592.84;7314224;19;131518;-40
2022/10/23 08:54:26;;;;;;;;;;;;;;;20.59;66.85;99593.22;7315033;19;129025;-41
2022/10/23 08:56:58;;;;;;;;;;;;;;;20.58;66.80;99598.59;7316345;19;129446;-39
2022/10/23 08:59:31;;;;;;;;;;;;;;;20.55;67.68;99588.41;7316381;19;129353;-38
2022/10/23 09:02:00;;;;;;;;;;;;;;;20.60;66.99;99597.50;7314281;19;130397;-40
2022/10/23 09:04:25;;;;;;;;;;;;;;;20.58;67.12;99604.63;7316007;19;129366;-39
2022/10/23 09:06:56;;;;;;;;;;;;;;;20.62;67.58;99602.59;7314412;19;129352;-38
2022/10/23 09:09:21;;;;;;;;;;;;;;;20.60;67.48;99599.28;7315501;19;129913;-39
2022/10/23 09:12:10;;;;;;;;;;;;;;;20.62;67.51;99586.91;7314716;19;130279;-38
2022/10/23 09:14:53;;;;;;;;;;;;;;;20.61;67.26;99580.03;7312931;19;129827;-39
2022/10/23 09:17:23;;;;;;;;;;;;;;;20.61;67.19;99577.41;7315308;19;130005;-40
2022/10/23 09:19:50;;;;;;;;;;;;;;;20.53;66.75;99566.81;7313115;19;130177;-38
2022/10/23 09:22:15;;;;;;;;;;;;;;;20.56;67.35;99580.44;7313851;19;129310;-40
2022/10/23 09:24:42;;;;;;;;;;;;;;;20.51;67.38;99566.16;7314553;19;129242;-37
2022/10/23 09:27:12;;;;;;;;;;;;;;;20.60;66.92;99562.72;7313652;19;129789;-40
2022/10/23 09:29:45;;;;;;;;;;;;;;;20.57;67.31;99566.44;7315272;19;129661;-41
2022/10/23 09:32:10;;;;;;;;;;;;;;;20.60;66.90;99563.56;7313430;19;130537;-37
2022/10/23 09:34:35;;;;;;;;;;;;;;;20.57;67.38;99574.28;7314724;19;129000;-38
2022/10/23 09:37:02;;;;;;;;;;;;;;;20.55;67.39;99573.56;7315099;19;129046;-40
2022/10/23 09:39:31;;;;;;;;;;;;;;;20.50;67.03;99567.09;7314465;19;129079;-39
2022/10/23 09:41:57;;;;;;;;;;;;;;;20.62;67.46;99576.47;7311532;19;129157;-39
2022/10/23 09:44:24;;;;;;;;;;;;;;;20.59;67.16;99579.34;7314533;19;129297;-41
2022/10/23 09:46:52;;;;;;;;;;;;;;;20.54;66.98;99571.91;7314289;19;129168;-38
2022/10/23 09:49:25;;;;;;;;;;;;;;;20.53;67.47;99572.03;7313569;19;131150;-39
2022/10/23 09:51:52;;;;;;;;;;;;;;;20.60;67.16;99588.84;7312782;19;130292;-38
2022/10/23 09:54:18;;;;;;;;;;;;;;;20.54;67.26;99569.28;7314063;19;129369;-38
2022/10/23 09:56:46;;;;;;;;;;;;;;;20.59;67.14;99584.59;7315089;19;129877;-39
2022/10/23 09:59:11;;;;;;;;;;;;;;;20.61;67.04;99578.25;7312296;19;129699;-38
2022/10/23 10:01:44;;;;;;;;;;;;;;;20.62;67.21;99581.69;7312964;19;131548;-40
2022/10/23 10:04:10;;;;;;;;;;;;;;;20.61;67.42;99582.63;7314016;19;129186;-40
2022/10/23 10:06:35;;;;;;;;;;;;;;;20.55;67.10;99585.78;7314425;19;128900;-38
2022/10/23 10:09:09;;;;;;;;;;;;;;;20.58;67.47;99575.06;7310614;19;129502;-40
2022/10/23 10:11:43;;;;;;;;;;;;;;;20.59;67.71;99577.56;7313029;19;129519;-40
2022/10/23 10:14:14;;;;;;;;;;;;;;;20.60;67.61;99573.16;7312894;19;129168;-39
2022/10/23 10:16:45;;;;;;;;;;;;;;;20.62;66.82;99571.25;7313532;19;129548;-37
2022/10/23 10:19:10;;;;;;;;;;;;;;;20.61;67.44;99567.81;7311202;19;131927;-39
2022/10/23 10:21:59;;;;;;;;;;;;;;;20.60;66.81;99565.31;7312510;19;129612;-38
2022/10/23 10:24:31;;;;;;;;;;;;;;;20.61;67.15;99566.97;7313815;19;128966;-39
2022/10/23 10:27:02;;;;;;;;;;;;;;;20.60;66.93;99554.88;7310536;19;129737;-38
2022/10/23 10:29:39;;;;;;;;;;;;;;;20.62;67.13;99550.34;7312756;19;130243;-39
2022/10/23 10:32:16;;;;;;;;;;;;;;;20.62;67.33;99545.13;7311884;19;129947;-40
2022/10/23 10:34:54;;;;;;;;;;;;;;;20.55;66.78;99544.00;7312792;19;129675;-38
2022/10/23 10:37:38;;;;;;;;;;;;;;;20.59;67.25;99548.00;7313184;19;129726;-39
2022/10/23 10:40:13;;;;;;;;;;;;;;;20.53;67.42;99525.03;7313308;19;131047;-37
2022/10/23 10:42:44;;;;;;;;;;;;;;;20.62;67.44;99551.19;7312031;19;130398;-38
2022/10/23 10:45:25;;;;;;;;;;;;;;;20.62;66.76;99539.91;7312808;19;130426;-39
2022/10/23 10:47:50;;;;;;;;;;;;;;;20.55;67.67;99537.00;7310184;19;129030;-36
2022/10/23 10:50:51;;;;;;;;;;;;;;;20.58;67.07;99543.72;7311619;19;130379;-40
2022/10/23 10:53:19;;;;;;;;;;;;;;;20.59;67.21;99534.94;7306609;19;131295;-39
2022/10/23 10:55:49;;;;;;;;;;;;;;;20.58;66.99;99534.13;7311952;19;128983;-40
2022/10/23 10:58:17;;;;;;;;;;;;;;;20.57;66.88;99536.88;7310676;19;128852;-38
2022/10/23 11:00:43;;;;;;;;;;;;;;;20.59;67.53;99521.91;7312428;19;130523;-38
2022/10/23 11:03:21;;;;;;;;;;;;;;;20.50;67.48;99499.19;7311263;19;130324;-39
2022/10/23 11:05:50;;;;;;;;;;;;;;;20.62;67.36;99514.63;7313300;19;129336;-37
2022/10/23 11:08:20;;;;;;;;;;;;;;;20.52;67.11;99490.28;7309458;19;129563;-38
2022/10/23 11:10:48;;;;;;;;;;;;;;;20.65;67.28;99505.66;7312315;19;130728;-39
2022/10/23 11:13:36;;;;;;;;;;;;;;;20.61;66.57;99499.06;7311354;19;130202;-39
2022/10/23 11:16:11;;;;;;;;;;;;;;;20.61;67.38;99496.44;7311637;19;129398;-40
2022/10/23 11:18:38;;;;;;;;;;;;;;;20.58;66.87;99491.50;7310285;19;128992;-39
2022/10/23 11:21:13;;;;;;;;;;;;;;;20.57;67.05;99493.31;7311794;19;130570;-40
2022/10/23 11:23:47;;;;;;;;;;;;;;;20.61;67.51;99492.06;7310356;19;130428;-38
2022/10/23 11:26:19;;;;;;;;;;;;;;;20.58;67.42;99492.31;7311462;19;128890;-37
2022/10/23 11:28:50;;;;;;;;;;;;;;;20.63;67.29;99491.91;7310444;19;129257;-40
2022/10/23 11:31:34;;;;;;;;;;;;;;;20.65;66.87;99487.38;7310494;19;129570;-38
2022/10/23 11:33:59;;;;;;;;;;;;;;;20.63;66.95;99478.84;7311889;19;131241;-39
2022/10/23 11:36:43;;;;;;;;;;;;;;;20.54;66.96;99458.78;7311437;19;129403;-39
2022/10/23 11:39:16;;;;;;;;;;;;;;;20.58;67.19;99478.44;7308703;19;129297;-39
2022/10/23 11:41:50;;;;;;;;;;;;;;;20.59;67.42;99474.88;7308912;19;130275;-36
2022/10/23 11:44:44;;;;;;;;;;;;;;;20.57;66.85;99471.56;7311553;19;130432;-40
2022/10/23 11:47:28;;;;;;;;;;;;;;;20.59;67.44;99464.44;7308508;19;128956;-39
2022/10/23 11:50:10;;;;;;;;;;;;;;;20.59;67.50;99461.81;7311300;19;129507;-36
2022/10/23 11:52:50;;;;;;;;;;;;;;;20.49;67.39;99447.94;7310555;19;130187;-40
2022/10/23 11:55:15;;;;;;;;;;;;;;;20.59;66.69;99467.84;7311065;19;131193;-41
2022/10/23 11:57:41;;;;;;;;;;;;;;;20.58;67.27;99465.38;7308878;19;129048;-39
2022/10/23 12:00:22;;;;;;;;;;;;;;;20.54;67.38;99458.78;7310016;19;129622;-40
2022/10/23 12:02:53;;;;;;;;;;;;;;;20.56;67.67;99454.25;7309160;19;130029;-38
2022/10/23 12:05:24;;;;;;;;;;;;;;;20.55;67.10;99444.75;7311105;19;130489;-38
2022/10/23 12:07:53;;;;;;;;;;;;;;;20.54;67.48;99449.16;7309288;19;129188;-40
2022/10/23 12:10:25;;;;;;;;;;;;;;;20.60;66.99;99437.34;7309190;19;129162;-39
2022/10/23 12:12:57;;;;;;;;;;;;;;;20.56;67.06;99447.22;7308470;19;130958;-39
2022/10/23 12:15:24;;;;;;;;;;;;;;;20.57;67.47;99443.69;7310012;19;130579;-40
2022/10/23 12:17:51;;;;;;;;;;;;;;;20.58;67.40;99444.47;7310927;19;129115;-40
2022/10/23 12:20:34;;;;;;;;;;;;;;;20.56;67.30;99442.00;7310153;19;130220;-39
2022/10/23 12:23:18;;;;;;;;;;;;;;;20.58;67.00;99434.03;7310114;19;130213;-40
2022/10/23 12:25:55;;;;;;;;;;;;;;;20.59;66.94;99426.06;7309257;19;130917;-40
2022/10/23 12:28:26;;;;;;;;;;;;;;;20.57;66.85;99421.94;7308286;19;129299;-40
2022/10/23 12:31:03;;;;;;;;;;;;;;;20.61;66.97;99423.31;7308473;19;130018;-39
2022/10/23 12:33:36;;;;;;;;;;;;;;;20.57;66.77;99416.72;7308293;19;130233;-39
2022/10/23 12:36:14;;;;;;;;;;;;;;;20.57;67.46;99417.56;7309169;19;131262;-38
2022/10/23 12:38:46;;;;;;;;;;;;;;;20.56;66.89;99415.09;7307811;19;128900;-36
2022/10/23 12:41:13;;;;;;;;;;;;;;;20.52;67.28;99408.47;7308396;19;129845;-40